sensor_id;sensor_type;location;lat;lon;timestamp;temperature;humidity
38480;DHT22;62333;51.980;5.934;2023-06-22T00:02:17;23.90;64.60
38480;DHT22;62333;51.980;5.934;2023-06-22T00:04:43;23.80;64.50
38480;DHT22;62333;51.980;5.934;2023-06-22T00:07:09;23.80;64.40
38480;DHT22;62333;51.980;5.934;2023-06-22T00:09:35;23.80;64.40
38480;DHT22;62333;51.980;5.934;2023-06-22T00:12:01;23.80;64.40
38480;DHT22;62333;51.980;5.934;2023-06-22T00:14:27;23.70;64.30
38480;DHT22;62333;51.980;5.934;2023-06-22T00:16:52;23.70;64.40
38480;DHT22;62333;51.980;5.934;2023-06-22T00:19:23;23.70;64.40
38480;DHT22;62333;51.980;5.934;2023-06-22T00:21:51;23.70;64.40
38480;DHT22;62333;51.980;5.934;2023-06-22T00:24:22;23.60;64.40
38480;DHT22;62333;51.980;5.934;2023-06-22T00:26:48;23.60;64.60
38480;DHT22;62333;51.980;5.934;2023-06-22T00:29:14;23.60;64.70
38480;DHT22;62333;51.980;5.934;2023-06-22T00:31:40;23.50;64.60
38480;DHT22;62333;51.980;5.934;2023-06-22T00:34:05;23.60;64.80
38480;DHT22;62333;51.980;5.934;2023-06-22T00:36:32;23.50;64.80
38480;DHT22;62333;51.980;5.934;2023-06-22T00:38:57;23.50;64.90
38480;DHT22;62333;51.980;5.934;2023-06-22T00:41:23;23.50;65.00
38480;DHT22;62333;51.980;5.934;2023-06-22T00:43:49;23.50;65.10
38480;DHT22;62333;51.980;5.934;2023-06-22T00:46:15;23.50;65.20
38480;DHT22;62333;51.980;5.934;2023-06-22T00:48:40;23.40;65.20
38480;DHT22;62333;51.980;5.934;2023-06-22T00:51:10;23.40;65.30
38480;DHT22;62333;51.980;5.934;2023-06-22T00:53:35;23.30;66.00
38480;DHT22;62333;51.980;5.934;2023-06-22T00:56:02;23.40;65.50
38480;DHT22;62333;51.980;5.934;2023-06-22T00:58:29;23.30;65.60
38480;DHT22;62333;51.980;5.934;2023-06-22T01:00:55;23.30;65.70
38480;DHT22;62333;51.980;5.934;2023-06-22T01:03:22;23.30;65.80
38480;DHT22;62333;51.980;5.934;2023-06-22T01:05:49;23.30;65.90
38480;DHT22;62333;51.980;5.934;2023-06-22T01:10:57;23.20;66.10
38480;DHT22;62333;51.980;5.934;2023-06-22T01:13:45;23.20;66.20
38480;DHT22;62333;51.980;5.934;2023-06-22T01:16:35;23.20;66.40
38480;DHT22;62333;51.980;5.934;2023-06-22T01:19:20;23.10;66.40
38480;DHT22;62333;51.980;5.934;2023-06-22T01:21:51;23.10;66.50
38480;DHT22;62333;51.980;5.934;2023-06-22T01:24:27;23.10;66.70
38480;DHT22;62333;51.980;5.934;2023-06-22T01:29:37;23.00;66.80
38480;DHT22;62333;51.980;5.934;2023-06-22T01:32:05;23.00;67.00
38480;DHT22;62333;51.980;5.934;2023-06-22T01:34:32;22.90;67.10
38480;DHT22;62333;51.980;5.934;2023-06-22T01:36:59;22.90;67.30
38480;DHT22;62333;51.980;5.934;2023-06-22T01:39:27;22.90;67.50
38480;DHT22;62333;51.980;5.934;2023-06-22T01:41:53;22.90;67.50
38480;DHT22;62333;51.980;5.934;2023-06-22T01:44:20;22.80;67.60
38480;DHT22;62333;51.980;5.934;2023-06-22T01:46:48;22.80;67.70
38480;DHT22;62333;51.980;5.934;2023-06-22T01:49:15;22.80;67.80
38480;DHT22;62333;51.980;5.934;2023-06-22T01:51:40;22.80;67.90
38480;DHT22;62333;51.980;5.934;2023-06-22T01:54:06;22.70;68.00
38480;DHT22;62333;51.980;5.934;2023-06-22T01:56:33;22.70;68.10
38480;DHT22;62333;51.980;5.934;2023-06-22T02:02:01;22.70;68.20
38480;DHT22;62333;51.980;5.934;2023-06-22T02:04:52;22.70;68.20
38480;DHT22;62333;51.980;5.934;2023-06-22T02:07:23;22.60;68.30
38480;DHT22;62333;51.980;5.934;2023-06-22T02:09:51;22.50;68.30
38480;DHT22;62333;51.980;5.934;2023-06-22T02:12:22;22.50;68.40
38480;DHT22;62333;51.980;5.934;2023-06-22T02:14:49;22.40;68.40
38480;DHT22;62333;51.980;5.934;2023-06-22T02:17:17;22.50;68.60
38480;DHT22;62333;51.980;5.934;2023-06-22T02:19:43;22.40;68.70
38480;DHT22;62333;51.980;5.934;2023-06-22T02:22:09;22.40;68.70
38480;DHT22;62333;51.980;5.934;2023-06-22T02:24:35;22.40;68.80
38480;DHT22;62333;51.980;5.934;2023-06-22T02:27:02;22.40;68.80
38480;DHT22;62333;51.980;5.934;2023-06-22T02:29:28;22.30;69.00
38480;DHT22;62333;51.980;5.934;2023-06-22T02:31:54;22.30;69.40
38480;DHT22;62333;51.980;5.934;2023-06-22T02:34:21;22.30;69.20
38480;DHT22;62333;51.980;5.934;2023-06-22T02:36:50;22.30;69.40
38480;DHT22;62333;51.980;5.934;2023-06-22T02:39:25;22.30;69.50
38480;DHT22;62333;51.980;5.934;2023-06-22T02:41:51;22.30;69.70
38480;DHT22;62333;51.980;5.934;2023-06-22T02:44:18;22.30;69.70
38480;DHT22;62333;51.980;5.934;2023-06-22T02:46:44;22.20;69.70
38480;DHT22;62333;51.980;5.934;2023-06-22T02:49:10;22.20;69.80
38480;DHT22;62333;51.980;5.934;2023-06-22T02:51:38;22.20;69.80
38480;DHT22;62333;51.980;5.934;2023-06-22T02:54:05;22.20;70.00
38480;DHT22;62333;51.980;5.934;2023-06-22T02:56:31;22.20;70.20
38480;DHT22;62333;51.980;5.934;2023-06-22T02:58:57;22.20;70.40
38480;DHT22;62333;51.980;5.934;2023-06-22T03:01:30;22.20;70.50
38480;DHT22;62333;51.980;5.934;2023-06-22T03:04:03;22.10;70.50
38480;DHT22;62333;51.980;5.934;2023-06-22T03:06:30;22.10;70.70
38480;DHT22;62333;51.980;5.934;2023-06-22T03:09:03;22.10;70.80
38480;DHT22;62333;51.980;5.934;2023-06-22T03:11:33;22.10;70.90
38480;DHT22;62333;51.980;5.934;2023-06-22T03:14:00;22.00;71.00
38480;DHT22;62333;51.980;5.934;2023-06-22T03:16:26;22.00;71.10
38480;DHT22;62333;51.980;5.934;2023-06-22T03:18:52;22.00;71.30
38480;DHT22;62333;51.980;5.934;2023-06-22T03:21:22;22.00;71.40
38480;DHT22;62333;51.980;5.934;2023-06-22T03:23:48;21.90;71.60
38480;DHT22;62333;51.980;5.934;2023-06-22T03:26:17;22.00;71.90
38480;DHT22;62333;51.980;5.934;2023-06-22T03:28:43;22.00;72.10
38480;DHT22;62333;51.980;5.934;2023-06-22T03:31:09;21.90;72.00
38480;DHT22;62333;51.980;5.934;2023-06-22T03:33:34;21.90;72.30
38480;DHT22;62333;51.980;5.934;2023-06-22T03:36:00;21.90;72.50
38480;DHT22;62333;51.980;5.934;2023-06-22T03:38:26;21.90;72.80
38480;DHT22;62333;51.980;5.934;2023-06-22T03:40:52;21.90;72.90
38480;DHT22;62333;51.980;5.934;2023-06-22T03:43:17;21.90;73.10
38480;DHT22;62333;51.980;5.934;2023-06-22T03:45:43;21.90;73.30
38480;DHT22;62333;51.980;5.934;2023-06-22T03:48:11;21.90;73.50
38480;DHT22;62333;51.980;5.934;2023-06-22T03:50:36;21.90;73.70
38480;DHT22;62333;51.980;5.934;2023-06-22T03:53:02;21.90;73.80
38480;DHT22;62333;51.980;5.934;2023-06-22T03:55:28;21.90;74.00
38480;DHT22;62333;51.980;5.934;2023-06-22T03:57:54;21.90;74.20
38480;DHT22;62333;51.980;5.934;2023-06-22T04:00:23;21.90;74.40
38480;DHT22;62333;51.980;5.934;2023-06-22T04:02:48;21.80;74.50
38480;DHT22;62333;51.980;5.934;2023-06-22T04:05:14;21.80;74.70
38480;DHT22;62333;51.980;5.934;2023-06-22T04:07:40;21.80;74.80
38480;DHT22;62333;51.980;5.934;2023-06-22T04:10:06;21.90;75.00
38480;DHT22;62333;51.980;5.934;2023-06-22T04:12:32;21.80;75.10
38480;DHT22;62333;51.980;5.934;2023-06-22T04:14:57;21.80;75.10
38480;DHT22;62333;51.980;5.934;2023-06-22T04:17:23;21.80;75.30
38480;DHT22;62333;51.980;5.934;2023-06-22T04:19:51;21.80;75.50
38480;DHT22;62333;51.980;5.934;2023-06-22T04:22:17;21.80;75.60
38480;DHT22;62333;51.980;5.934;2023-06-22T04:24:43;21.80;75.80
38480;DHT22;62333;51.980;5.934;2023-06-22T04:27:09;21.80;75.80
38480;DHT22;62333;51.980;5.934;2023-06-22T04:29:34;21.80;76.10
38480;DHT22;62333;51.980;5.934;2023-06-22T04:32:00;21.80;76.20
38480;DHT22;62333;51.980;5.934;2023-06-22T04:34:31;21.80;76.40
38480;DHT22;62333;51.980;5.934;2023-06-22T04:36:56;21.90;76.60
38480;DHT22;62333;51.980;5.934;2023-06-22T04:39:22;21.90;76.60
38480;DHT22;62333;51.980;5.934;2023-06-22T04:41:49;21.90;76.60
38480;DHT22;62333;51.980;5.934;2023-06-22T04:44:17;21.90;76.80
38480;DHT22;62333;51.980;5.934;2023-06-22T04:46:50;22.00;76.90
38480;DHT22;62333;51.980;5.934;2023-06-22T04:49:20;22.00;77.00
38480;DHT22;62333;51.980;5.934;2023-06-22T04:51:46;22.10;77.20
38480;DHT22;62333;51.980;5.934;2023-06-22T04:54:12;22.10;77.20
38480;DHT22;62333;51.980;5.934;2023-06-22T04:56:37;22.20;77.40
38480;DHT22;62333;51.980;5.934;2023-06-22T04:59:07;22.20;77.40
38480;DHT22;62333;51.980;5.934;2023-06-22T05:01:33;22.20;77.50
38480;DHT22;62333;51.980;5.934;2023-06-22T05:04:00;22.20;77.70
38480;DHT22;62333;51.980;5.934;2023-06-22T05:06:27;22.30;77.70
38480;DHT22;62333;51.980;5.934;2023-06-22T05:08:56;22.30;77.80
38480;DHT22;62333;51.980;5.934;2023-06-22T05:11:28;22.30;77.90
38480;DHT22;62333;51.980;5.934;2023-06-22T05:13:54;22.40;77.90
38480;DHT22;62333;51.980;5.934;2023-06-22T05:16:20;22.40;77.80
38480;DHT22;62333;51.980;5.934;2023-06-22T05:18:51;22.40;77.90
38480;DHT22;62333;51.980;5.934;2023-06-22T05:21:17;22.50;77.80
38480;DHT22;62333;51.980;5.934;2023-06-22T05:23:43;22.50;77.70
38480;DHT22;62333;51.980;5.934;2023-06-22T05:26:08;22.60;77.70
38480;DHT22;62333;51.980;5.934;2023-06-22T05:28:35;22.60;77.60
38480;DHT22;62333;51.980;5.934;2023-06-22T05:31:01;22.70;77.50
38480;DHT22;62333;51.980;5.934;2023-06-22T05:33:26;22.70;77.40
38480;DHT22;62333;51.980;5.934;2023-06-22T05:35:52;22.70;77.30
38480;DHT22;62333;51.980;5.934;2023-06-22T05:38:18;22.80;77.40
38480;DHT22;62333;51.980;5.934;2023-06-22T05:40:43;22.80;77.20
38480;DHT22;62333;51.980;5.934;2023-06-22T05:43:09;22.90;77.10
38480;DHT22;62333;51.980;5.934;2023-06-22T05:45:35;22.80;76.90
38480;DHT22;62333;51.980;5.934;2023-06-22T05:48:00;22.90;76.80
38480;DHT22;62333;51.980;5.934;2023-06-22T05:50:26;22.90;76.70
38480;DHT22;62333;51.980;5.934;2023-06-22T05:52:52;23.00;76.50
38480;DHT22;62333;51.980;5.934;2023-06-22T05:55:18;23.00;76.30
38480;DHT22;62333;51.980;5.934;2023-06-22T05:57:44;23.00;76.80
38480;DHT22;62333;51.980;5.934;2023-06-22T06:00:10;23.10;76.20
38480;DHT22;62333;51.980;5.934;2023-06-22T06:02:37;23.20;76.10
38480;DHT22;62333;51.980;5.934;2023-06-22T06:05:10;23.30;75.90
38480;DHT22;62333;51.980;5.934;2023-06-22T06:07:36;23.30;75.80
38480;DHT22;62333;51.980;5.934;2023-06-22T06:10:03;23.40;75.70
38480;DHT22;62333;51.980;5.934;2023-06-22T06:12:30;23.50;75.50
38480;DHT22;62333;51.980;5.934;2023-06-22T06:14:55;23.50;75.20
38480;DHT22;62333;51.980;5.934;2023-06-22T06:17:22;23.60;74.90
38480;DHT22;62333;51.980;5.934;2023-06-22T06:19:47;23.70;74.70
38480;DHT22;62333;51.980;5.934;2023-06-22T06:22:13;23.80;74.50
38480;DHT22;62333;51.980;5.934;2023-06-22T06:24:39;23.90;74.20
38480;DHT22;62333;51.980;5.934;2023-06-22T06:27:04;23.90;73.90
38480;DHT22;62333;51.980;5.934;2023-06-22T06:29:31;24.00;73.60
38480;DHT22;62333;51.980;5.934;2023-06-22T06:31:57;24.10;73.50
38480;DHT22;62333;51.980;5.934;2023-06-22T06:34:22;24.10;73.30
38480;DHT22;62333;51.980;5.934;2023-06-22T06:36:48;24.20;73.00
38480;DHT22;62333;51.980;5.934;2023-06-22T06:39:14;24.20;72.80
38480;DHT22;62333;51.980;5.934;2023-06-22T06:41:39;24.30;72.80
38480;DHT22;62333;51.980;5.934;2023-06-22T06:44:05;24.40;72.50
38480;DHT22;62333;51.980;5.934;2023-06-22T06:46:31;24.50;72.40
38480;DHT22;62333;51.980;5.934;2023-06-22T06:48:56;24.60;72.20
38480;DHT22;62333;51.980;5.934;2023-06-22T06:51:22;24.80;72.00
38480;DHT22;62333;51.980;5.934;2023-06-22T06:53:48;24.90;71.80
38480;DHT22;62333;51.980;5.934;2023-06-22T06:56:13;25.00;71.80
38480;DHT22;62333;51.980;5.934;2023-06-22T06:58:42;25.10;71.50
38480;DHT22;62333;51.980;5.934;2023-06-22T07:01:08;25.20;71.20
38480;DHT22;62333;51.980;5.934;2023-06-22T07:03:34;25.20;70.80
38480;DHT22;62333;51.980;5.934;2023-06-22T07:06:00;25.40;70.70
38480;DHT22;62333;51.980;5.934;2023-06-22T07:08:25;25.40;70.50
38480;DHT22;62333;51.980;5.934;2023-06-22T07:10:52;25.50;70.10
38480;DHT22;62333;51.980;5.934;2023-06-22T07:13:18;25.50;69.90
38480;DHT22;62333;51.980;5.934;2023-06-22T07:15:43;25.50;69.70
38480;DHT22;62333;51.980;5.934;2023-06-22T07:18:09;25.60;69.70
38480;DHT22;62333;51.980;5.934;2023-06-22T07:20:35;25.60;69.60
38480;DHT22;62333;51.980;5.934;2023-06-22T07:23:00;25.70;69.60
38480;DHT22;62333;51.980;5.934;2023-06-22T07:25:26;25.80;69.50
38480;DHT22;62333;51.980;5.934;2023-06-22T07:28:19;25.90;69.40
38480;DHT22;62333;51.980;5.934;2023-06-22T07:30:46;25.90;69.10
38480;DHT22;62333;51.980;5.934;2023-06-22T07:33:11;26.00;69.10
38480;DHT22;62333;51.980;5.934;2023-06-22T07:35:37;26.10;68.80
38480;DHT22;62333;51.980;5.934;2023-06-22T07:38:03;26.10;68.30
38480;DHT22;62333;51.980;5.934;2023-06-22T07:40:29;26.20;68.30
38480;DHT22;62333;51.980;5.934;2023-06-22T07:42:54;26.20;68.10
38480;DHT22;62333;51.980;5.934;2023-06-22T07:45:20;26.20;67.90
38480;DHT22;62333;51.980;5.934;2023-06-22T07:47:46;26.20;67.70
38480;DHT22;62333;51.980;5.934;2023-06-22T07:50:12;26.20;67.60
38480;DHT22;62333;51.980;5.934;2023-06-22T07:52:37;26.20;67.30
38480;DHT22;62333;51.980;5.934;2023-06-22T07:55:03;26.20;67.10
38480;DHT22;62333;51.980;5.934;2023-06-22T07:57:29;26.20;67.00
38480;DHT22;62333;51.980;5.934;2023-06-22T08:00:05;26.20;67.30
38480;DHT22;62333;51.980;5.934;2023-06-22T08:02:41;26.20;67.30
38480;DHT22;62333;51.980;5.934;2023-06-22T08:05:09;26.30;67.30
38480;DHT22;62333;51.980;5.934;2023-06-22T08:07:35;26.30;67.10
38480;DHT22;62333;51.980;5.934;2023-06-22T08:10:03;26.30;66.80
38480;DHT22;62333;51.980;5.934;2023-06-22T08:12:29;26.30;66.20
38480;DHT22;62333;51.980;5.934;2023-06-22T08:14:55;26.20;65.80
38480;DHT22;62333;51.980;5.934;2023-06-22T08:17:22;26.10;65.70
38480;DHT22;62333;51.980;5.934;2023-06-22T08:19:48;26.10;65.80
38480;DHT22;62333;51.980;5.934;2023-06-22T08:22:15;26.00;65.50
38480;DHT22;62333;51.980;5.934;2023-06-22T08:24:41;26.00;65.60
38480;DHT22;62333;51.980;5.934;2023-06-22T08:27:10;26.00;65.50
38480;DHT22;62333;51.980;5.934;2023-06-22T08:29:40;26.00;65.60
38480;DHT22;62333;51.980;5.934;2023-06-22T08:32:09;26.10;65.80
38480;DHT22;62333;51.980;5.934;2023-06-22T08:34:35;26.10;65.80
38480;DHT22;62333;51.980;5.934;2023-06-22T08:37:01;26.20;66.10
38480;DHT22;62333;51.980;5.934;2023-06-22T08:39:32;26.20;66.00
38480;DHT22;62333;51.980;5.934;2023-06-22T08:41:57;26.30;65.20
38480;DHT22;62333;51.980;5.934;2023-06-22T08:44:23;26.40;64.80
38480;DHT22;62333;51.980;5.934;2023-06-22T08:46:48;26.40;64.40
38480;DHT22;62333;51.980;5.934;2023-06-22T08:49:14;26.40;64.40
38480;DHT22;62333;51.980;5.934;2023-06-22T08:51:40;26.50;64.10
38480;DHT22;62333;51.980;5.934;2023-06-22T08:54:06;26.50;64.00
38480;DHT22;62333;51.980;5.934;2023-06-22T08:56:31;26.60;63.90
38480;DHT22;62333;51.980;5.934;2023-06-22T08:58:57;26.60;63.80
38480;DHT22;62333;51.980;5.934;2023-06-22T09:01:23;26.70;63.60
38480;DHT22;62333;51.980;5.934;2023-06-22T09:03:49;26.70;63.00
38480;DHT22;62333;51.980;5.934;2023-06-22T09:06:21;26.80;63.10
38480;DHT22;62333;51.980;5.934;2023-06-22T09:08:47;26.80;63.10
38480;DHT22;62333;51.980;5.934;2023-06-22T09:11:13;26.90;63.10
38480;DHT22;62333;51.980;5.934;2023-06-22T09:13:39;27.00;63.00
38480;DHT22;62333;51.980;5.934;2023-06-22T09:16:05;27.00;62.90
38480;DHT22;62333;51.980;5.934;2023-06-22T09:18:30;27.00;62.20
38480;DHT22;62333;51.980;5.934;2023-06-22T09:20:56;27.10;62.20
38480;DHT22;62333;51.980;5.934;2023-06-22T09:23:22;27.30;62.30
38480;DHT22;62333;51.980;5.934;2023-06-22T09:25:47;27.40;62.00
38480;DHT22;62333;51.980;5.934;2023-06-22T09:28:14;27.50;61.60
38480;DHT22;62333;51.980;5.934;2023-06-22T09:30:39;27.50;61.20
38480;DHT22;62333;51.980;5.934;2023-06-22T09:33:05;27.50;60.60
38480;DHT22;62333;51.980;5.934;2023-06-22T09:35:31;27.50;60.20
38480;DHT22;62333;51.980;5.934;2023-06-22T09:37:56;27.60;59.80
38480;DHT22;62333;51.980;5.934;2023-06-22T09:40:22;27.60;59.40
38480;DHT22;62333;51.980;5.934;2023-06-22T09:42:48;27.60;59.30
38480;DHT22;62333;51.980;5.934;2023-06-22T09:45:13;27.60;59.30
38480;DHT22;62333;51.980;5.934;2023-06-22T09:47:39;27.60;59.20
38480;DHT22;62333;51.980;5.934;2023-06-22T09:50:05;27.60;59.60
38480;DHT22;62333;51.980;5.934;2023-06-22T09:52:31;27.60;58.70
38480;DHT22;62333;51.980;5.934;2023-06-22T09:54:57;27.60;58.70
38480;DHT22;62333;51.980;5.934;2023-06-22T09:57:22;27.60;58.70
38480;DHT22;62333;51.980;5.934;2023-06-22T09:59:48;27.50;58.30
38480;DHT22;62333;51.980;5.934;2023-06-22T10:02:14;27.50;58.30
38480;DHT22;62333;51.980;5.934;2023-06-22T10:04:39;27.50;58.30
38480;DHT22;62333;51.980;5.934;2023-06-22T10:07:05;27.40;58.10
38480;DHT22;62333;51.980;5.934;2023-06-22T10:09:31;27.30;57.70
38480;DHT22;62333;51.980;5.934;2023-06-22T10:11:57;27.30;57.70
38480;DHT22;62333;51.980;5.934;2023-06-22T10:14:23;27.30;57.70
38480;DHT22;62333;51.980;5.934;2023-06-22T10:16:51;27.20;57.80
38480;DHT22;62333;51.980;5.934;2023-06-22T10:19:16;27.20;58.00
38480;DHT22;62333;51.980;5.934;2023-06-22T10:21:42;27.10;58.20
38480;DHT22;62333;51.980;5.934;2023-06-22T10:24:07;27.10;58.50
38480;DHT22;62333;51.980;5.934;2023-06-22T10:26:34;27.10;58.70
38480;DHT22;62333;51.980;5.934;2023-06-22T10:29:01;27.10;58.90
38480;DHT22;62333;51.980;5.934;2023-06-22T10:31:27;27.10;58.80
38480;DHT22;62333;51.980;5.934;2023-06-22T10:33:53;27.00;58.80
38480;DHT22;62333;51.980;5.934;2023-06-22T10:36:19;27.10;58.90
38480;DHT22;62333;51.980;5.934;2023-06-22T10:38:45;27.10;59.00
38480;DHT22;62333;51.980;5.934;2023-06-22T10:41:12;27.10;59.00
38480;DHT22;62333;51.980;5.934;2023-06-22T10:43:38;27.10;59.00
38480;DHT22;62333;51.980;5.934;2023-06-22T10:46:03;27.10;58.90
38480;DHT22;62333;51.980;5.934;2023-06-22T10:48:29;27.00;59.10
38480;DHT22;62333;51.980;5.934;2023-06-22T10:50:54;27.00;59.30
38480;DHT22;62333;51.980;5.934;2023-06-22T10:53:21;27.00;59.40
38480;DHT22;62333;51.980;5.934;2023-06-22T10:55:47;27.00;59.30
38480;DHT22;62333;51.980;5.934;2023-06-22T10:58:12;27.00;59.40
38480;DHT22;62333;51.980;5.934;2023-06-22T11:00:38;27.00;59.50
38480;DHT22;62333;51.980;5.934;2023-06-22T11:03:04;27.00;59.70
38480;DHT22;62333;51.980;5.934;2023-06-22T11:05:29;27.00;59.70
38480;DHT22;62333;51.980;5.934;2023-06-22T11:07:55;27.00;59.90
38480;DHT22;62333;51.980;5.934;2023-06-22T11:10:21;27.00;59.80
38480;DHT22;62333;51.980;5.934;2023-06-22T11:12:46;27.00;59.60
38480;DHT22;62333;51.980;5.934;2023-06-22T11:15:12;27.00;59.70
38480;DHT22;62333;51.980;5.934;2023-06-22T11:17:38;26.90;59.50
38480;DHT22;62333;51.980;5.934;2023-06-22T11:20:04;26.90;59.50
38480;DHT22;62333;51.980;5.934;2023-06-22T11:22:38;26.90;59.70
38480;DHT22;62333;51.980;5.934;2023-06-22T11:25:05;26.80;59.80
38480;DHT22;62333;51.980;5.934;2023-06-22T11:27:31;26.80;60.00
38480;DHT22;62333;51.980;5.934;2023-06-22T11:29:57;26.80;60.60
38480;DHT22;62333;51.980;5.934;2023-06-22T11:32:23;26.80;61.20
38480;DHT22;62333;51.980;5.934;2023-06-22T11:34:48;26.70;61.50
38480;DHT22;62333;51.980;5.934;2023-06-22T11:37:14;26.70;62.00
38480;DHT22;62333;51.980;5.934;2023-06-22T11:39:41;26.70;62.60
38480;DHT22;62333;51.980;5.934;2023-06-22T11:42:07;26.70;63.00
38480;DHT22;62333;51.980;5.934;2023-06-22T11:44:33;26.60;63.30
38480;DHT22;62333;51.980;5.934;2023-06-22T11:46:59;26.60;63.90
38480;DHT22;62333;51.980;5.934;2023-06-22T11:49:26;26.50;64.10
38480;DHT22;62333;51.980;5.934;2023-06-22T11:51:52;26.50;64.20
38480;DHT22;62333;51.980;5.934;2023-06-22T11:54:18;26.50;64.50
38480;DHT22;62333;51.980;5.934;2023-06-22T11:56:44;26.40;64.70
38480;DHT22;62333;51.980;5.934;2023-06-22T11:59:09;26.40;65.00
38480;DHT22;62333;51.980;5.934;2023-06-22T12:01:36;26.40;65.40
38480;DHT22;62333;51.980;5.934;2023-06-22T12:04:02;26.30;65.60
38480;DHT22;62333;51.980;5.934;2023-06-22T12:06:31;26.30;66.20
38480;DHT22;62333;51.980;5.934;2023-06-22T12:08:58;26.20;66.60
38480;DHT22;62333;51.980;5.934;2023-06-22T12:11:23;26.20;67.10
38480;DHT22;62333;51.980;5.934;2023-06-22T12:13:49;26.20;67.70
38480;DHT22;62333;51.980;5.934;2023-06-22T12:16:15;26.20;68.50
38480;DHT22;62333;51.980;5.934;2023-06-22T12:18:40;26.10;69.10
38480;DHT22;62333;51.980;5.934;2023-06-22T12:21:06;26.10;69.40
38480;DHT22;62333;51.980;5.934;2023-06-22T12:23:32;26.00;69.60
38480;DHT22;62333;51.980;5.934;2023-06-22T12:25:57;26.00;70.00
38480;DHT22;62333;51.980;5.934;2023-06-22T12:28:24;26.00;70.50
38480;DHT22;62333;51.980;5.934;2023-06-22T12:30:50;26.00;71.00
38480;DHT22;62333;51.980;5.934;2023-06-22T12:33:16;25.90;71.40
38480;DHT22;62333;51.980;5.934;2023-06-22T12:35:41;25.90;71.90
38480;DHT22;62333;51.980;5.934;2023-06-22T12:38:07;25.80;72.10
38480;DHT22;62333;51.980;5.934;2023-06-22T12:40:33;25.80;72.60
38480;DHT22;62333;51.980;5.934;2023-06-22T12:42:59;25.80;72.80
38480;DHT22;62333;51.980;5.934;2023-06-22T12:45:25;25.70;73.30
38480;DHT22;62333;51.980;5.934;2023-06-22T12:47:54;25.70;74.00
38480;DHT22;62333;51.980;5.934;2023-06-22T12:50:20;25.70;74.40
38480;DHT22;62333;51.980;5.934;2023-06-22T12:52:45;25.60;74.90
38480;DHT22;62333;51.980;5.934;2023-06-22T12:55:11;25.60;75.20
38480;DHT22;62333;51.980;5.934;2023-06-22T12:57:37;25.60;75.60
38480;DHT22;62333;51.980;5.934;2023-06-22T13:00:03;25.50;75.70
38480;DHT22;62333;51.980;5.934;2023-06-22T13:02:30;25.40;75.80
38480;DHT22;62333;51.980;5.934;2023-06-22T13:04:55;25.40;76.10
38480;DHT22;62333;51.980;5.934;2023-06-22T13:07:22;25.30;76.30
38480;DHT22;62333;51.980;5.934;2023-06-22T13:09:48;25.20;76.10
38480;DHT22;62333;51.980;5.934;2023-06-22T13:12:16;25.10;76.20
38480;DHT22;62333;51.980;5.934;2023-06-22T13:14:42;25.00;76.20
38480;DHT22;62333;51.980;5.934;2023-06-22T13:17:09;25.00;76.20
38480;DHT22;62333;51.980;5.934;2023-06-22T13:19:34;24.90;76.70
38480;DHT22;62333;51.980;5.934;2023-06-22T13:22:00;24.80;76.80
38480;DHT22;62333;51.980;5.934;2023-06-22T13:24:26;24.80;77.10
38480;DHT22;62333;51.980;5.934;2023-06-22T13:26:51;24.80;77.40
38480;DHT22;62333;51.980;5.934;2023-06-22T13:29:17;24.70;77.60
38480;DHT22;62333;51.980;5.934;2023-06-22T13:31:42;24.60;77.90
38480;DHT22;62333;51.980;5.934;2023-06-22T13:34:08;24.60;78.00
38480;DHT22;62333;51.980;5.934;2023-06-22T13:36:34;24.50;78.30
38480;DHT22;62333;51.980;5.934;2023-06-22T13:38:59;24.50;78.40
38480;DHT22;62333;51.980;5.934;2023-06-22T13:41:25;24.50;78.50
38480;DHT22;62333;51.980;5.934;2023-06-22T13:43:51;24.40;78.50
38480;DHT22;62333;51.980;5.934;2023-06-22T13:46:17;24.40;79.40
38480;DHT22;62333;51.980;5.934;2023-06-22T13:48:42;24.40;78.90
38480;DHT22;62333;51.980;5.934;2023-06-22T13:51:08;24.30;79.20
38480;DHT22;62333;51.980;5.934;2023-06-22T13:53:34;24.40;79.40
38480;DHT22;62333;51.980;5.934;2023-06-22T13:55:59;24.30;79.60
38480;DHT22;62333;51.980;5.934;2023-06-22T13:58:25;24.30;79.80
38480;DHT22;62333;51.980;5.934;2023-06-22T14:00:51;24.30;79.90
38480;DHT22;62333;51.980;5.934;2023-06-22T14:03:16;24.30;80.00
38480;DHT22;62333;51.980;5.934;2023-06-22T14:05:42;24.30;80.00
38480;DHT22;62333;51.980;5.934;2023-06-22T14:08:08;24.30;80.20
38480;DHT22;62333;51.980;5.934;2023-06-22T14:10:34;24.30;80.30
38480;DHT22;62333;51.980;5.934;2023-06-22T14:13:00;24.30;80.50
38480;DHT22;62333;51.980;5.934;2023-06-22T14:15:26;24.30;80.60
38480;DHT22;62333;51.980;5.934;2023-06-22T14:17:52;24.30;80.60
38480;DHT22;62333;51.980;5.934;2023-06-22T14:20:18;24.30;80.90
38480;DHT22;62333;51.980;5.934;2023-06-22T14:22:43;24.30;81.10
38480;DHT22;62333;51.980;5.934;2023-06-22T14:25:09;24.40;81.20
38480;DHT22;62333;51.980;5.934;2023-06-22T14:27:35;24.30;81.20
38480;DHT22;62333;51.980;5.934;2023-06-22T14:30:00;24.30;81.20
38480;DHT22;62333;51.980;5.934;2023-06-22T14:32:28;24.30;81.20
38480;DHT22;62333;51.980;5.934;2023-06-22T14:34:55;24.30;81.20
38480;DHT22;62333;51.980;5.934;2023-06-22T14:37:20;24.30;81.30
38480;DHT22;62333;51.980;5.934;2023-06-22T14:39:46;24.30;81.30
38480;DHT22;62333;51.980;5.934;2023-06-22T14:42:12;24.30;81.40
38480;DHT22;62333;51.980;5.934;2023-06-22T14:44:37;24.20;81.30
38480;DHT22;62333;51.980;5.934;2023-06-22T14:47:03;24.20;81.40
38480;DHT22;62333;51.980;5.934;2023-06-22T14:49:29;24.20;81.30
38480;DHT22;62333;51.980;5.934;2023-06-22T14:51:55;24.10;81.40
38480;DHT22;62333;51.980;5.934;2023-06-22T14:54:21;24.10;81.70
38480;DHT22;62333;51.980;5.934;2023-06-22T14:56:48;24.10;81.90
38480;DHT22;62333;51.980;5.934;2023-06-22T14:59:13;24.00;82.00
38480;DHT22;62333;51.980;5.934;2023-06-22T15:01:39;24.00;82.10
38480;DHT22;62333;51.980;5.934;2023-06-22T15:04:05;24.00;82.40
38480;DHT22;62333;51.980;5.934;2023-06-22T15:06:31;23.90;82.50
38480;DHT22;62333;51.980;5.934;2023-06-22T15:08:56;23.90;82.80
38480;DHT22;62333;51.980;5.934;2023-06-22T15:11:22;23.80;82.90
38480;DHT22;62333;51.980;5.934;2023-06-22T15:13:48;23.70;82.90
38480;DHT22;62333;51.980;5.934;2023-06-22T15:16:14;23.60;83.00
38480;DHT22;62333;51.980;5.934;2023-06-22T15:18:39;23.60;83.10
38480;DHT22;62333;51.980;5.934;2023-06-22T15:21:06;23.50;83.00
38480;DHT22;62333;51.980;5.934;2023-06-22T15:23:32;23.40;83.00
38480;DHT22;62333;51.980;5.934;2023-06-22T15:26:01;23.40;83.10
38480;DHT22;62333;51.980;5.934;2023-06-22T15:28:28;23.40;83.20
38480;DHT22;62333;51.980;5.934;2023-06-22T15:30:54;23.30;83.40
38480;DHT22;62333;51.980;5.934;2023-06-22T15:33:19;23.30;83.70
38480;DHT22;62333;51.980;5.934;2023-06-22T15:35:45;23.30;83.90